createdAt,value
2023-04-28T00:00:02.679Z,46.55
2023-04-28T00:02:30.583Z,46.73
2023-04-28T00:04:59.218Z,47.06
2023-04-28T00:07:28.467Z,47.01
2023-04-28T00:09:57.128Z,46.75
2023-04-28T00:12:24.965Z,46.95
2023-04-28T00:14:52.866Z,46.94
2023-04-28T00:17:20.640Z,47.19
2023-04-28T00:19:49.532Z,47.08
2023-04-28T00:22:17.290Z,47.57
2023-04-28T00:24:46.414Z,46.93
2023-04-28T00:27:14.240Z,46.99
2023-04-28T00:29:42.026Z,46.35
2023-04-28T00:32:10.480Z,46.97
2023-04-28T00:34:38.413Z,47.01
2023-04-28T00:37:06.234Z,47.27
2023-04-28T00:39:33.992Z,48.34
2023-04-28T00:42:04.231Z,49.40
2023-04-28T00:44:32.090Z,50.28
2023-04-28T00:47:00.188Z,51.78
2023-04-28T00:49:28.040Z,52.91
2023-04-28T00:51:55.878Z,53.80
2023-04-28T00:54:23.732Z,54.61
2023-04-28T00:56:51.793Z,55.94
2023-04-28T00:59:20.946Z,55.86
2023-04-28T01:01:49.052Z,56.56
2023-04-28T01:04:17.443Z,57.84
2023-04-28T01:06:45.800Z,58.45
2023-04-28T01:09:13.689Z,60.03
2023-04-28T01:11:41.430Z,60.10
2023-04-28T01:14:09.325Z,60.78
2023-04-28T01:16:39.834Z,61.18
2023-04-28T01:19:08.850Z,61.58
2023-04-28T01:21:36.611Z,61.86
2023-04-28T01:24:07.267Z,62.17
2023-04-28T01:26:35.132Z,62.32
2023-04-28T01:29:02.877Z,62.18
2023-04-28T01:31:31.731Z,62.47
2023-04-28T01:33:59.724Z,62.63
2023-04-28T01:36:28.501Z,62.21
2023-04-28T01:38:56.521Z,62.37
2023-04-28T01:41:25.677Z,62.49
2023-04-28T01:43:53.439Z,62.59
2023-04-28T01:46:21.301Z,62.93
2023-04-28T01:48:49.399Z,63.03
2023-04-28T01:51:17.116Z,63.22
2023-04-28T01:53:44.894Z,62.74
2023-04-28T01:56:12.593Z,63.43
2023-04-28T01:58:41.688Z,63.38
2023-04-28T02:01:09.489Z,64.07
2023-04-28T02:03:37.434Z,63.41
2023-04-28T02:06:05.907Z,64.03
2023-04-28T02:08:33.680Z,63.50
2023-04-28T02:11:01.811Z,64.13
2023-04-28T02:13:29.579Z,64.11
2023-04-28T02:16:01.807Z,63.89
2023-04-28T02:18:29.854Z,63.91
2023-04-28T02:20:57.686Z,64.60
2023-04-28T02:23:25.656Z,64.25
2023-04-28T02:26:01.953Z,64.01
2023-04-28T02:28:30.038Z,64.46
2023-04-28T02:31:06.506Z,64.47
2023-04-28T02:33:34.368Z,65.10
2023-04-28T02:36:02.338Z,64.63
2023-04-28T02:38:30.161Z,64.66
2023-04-28T02:41:01.392Z,65.09
2023-04-28T02:43:29.636Z,65.46
2023-04-28T02:45:57.556Z,65.01
2023-04-28T02:48:27.029Z,65.19
2023-04-28T02:50:55.028Z,64.98
2023-04-28T02:53:23.921Z,64.70
2023-04-28T02:55:51.737Z,64.83
2023-04-28T02:58:19.527Z,64.84
2023-04-28T03:00:47.758Z,65.05
2023-04-28T03:03:15.785Z,64.89
2023-04-28T03:05:45.102Z,64.23
2023-04-28T03:08:12.872Z,64.33
2023-04-28T03:10:40.762Z,64.25
2023-04-28T03:13:08.581Z,64.52
2023-04-28T03:15:36.459Z,63.16
2023-04-28T03:18:04.321Z,62.56
2023-04-28T03:20:32.144Z,62.57
2023-04-28T03:23:01.970Z,62.97
2023-04-28T03:25:29.730Z,62.61
2023-04-28T03:27:57.565Z,63.12
2023-04-28T03:30:25.329Z,63.53
2023-04-28T03:32:53.338Z,62.97
2023-04-28T03:35:21.658Z,63.27
2023-04-28T03:37:49.674Z,63.65
2023-04-28T03:40:19.205Z,62.53
2023-04-28T03:42:46.940Z,63.13
2023-04-28T03:45:14.698Z,63.03
2023-04-28T03:47:42.417Z,63.57
2023-04-28T03:50:10.677Z,62.77
2023-04-28T03:52:38.825Z,62.73
2023-04-28T03:55:07.393Z,62.28
2023-04-28T03:57:36.498Z,62.45
2023-04-28T04:00:04.763Z,62.21
2023-04-28T04:02:32.742Z,62.55
2023-04-28T04:05:00.778Z,62.74
2023-04-28T04:07:28.673Z,63.28
2023-04-28T04:09:56.419Z,63.58
2023-04-28T04:12:24.251Z,64.13
2023-04-28T04:14:53.370Z,64.41
2023-04-28T04:17:21.214Z,64.68
2023-04-28T04:19:49.116Z,65.35
2023-04-28T04:22:16.950Z,65.64
2023-04-28T04:24:44.777Z,66.01
2023-04-28T04:27:12.670Z,66.08
2023-04-28T04:29:40.524Z,66.55
2023-04-28T04:32:09.698Z,66.89
2023-04-28T04:34:37.445Z,66.47
2023-04-28T04:37:05.212Z,67.05
2023-04-28T04:39:33.175Z,67.14
2023-04-28T04:42:10.210Z,68.44
2023-04-28T04:44:44.951Z,67.75
2023-04-28T04:47:14.072Z,68.47
2023-04-28T04:49:41.836Z,69.85
2023-04-28T04:52:09.582Z,69.91
2023-04-28T04:54:37.375Z,70.68
2023-04-28T04:57:05.216Z,70.42
2023-04-28T04:59:33.054Z,70.29
2023-04-28T05:02:01.102Z,70.50
2023-04-28T05:04:30.343Z,71.03
2023-04-28T05:06:58.230Z,71.50
2023-04-28T05:09:25.954Z,71.33
2023-04-28T05:11:53.734Z,72.30
2023-04-28T05:14:21.599Z,73.39
2023-04-28T05:16:49.424Z,73.70
2023-04-28T05:19:17.503Z,73.70
2023-04-28T05:21:48.025Z,73.53
2023-04-28T05:24:16.217Z,73.87
2023-04-28T05:26:44.146Z,74.32
2023-04-28T05:29:11.962Z,74.42
2023-04-28T05:31:39.820Z,74.78
2023-04-28T05:34:07.615Z,74.93
2023-04-28T05:36:35.367Z,75.35
2023-04-28T05:39:04.557Z,75.72
2023-04-28T05:41:32.348Z,76.09
2023-04-28T05:44:00.154Z,76.61
2023-04-28T05:46:31.003Z,76.58
2023-04-28T05:48:59.353Z,76.89
2023-04-28T05:51:27.236Z,76.89
2023-04-28T05:53:55.027Z,77.39
2023-04-28T05:56:24.224Z,77.24
2023-04-28T05:58:52.099Z,77.77
2023-04-28T06:01:20.045Z,78.24
2023-04-28T06:03:47.995Z,78.50
2023-04-28T06:06:15.984Z,78.11
2023-04-28T06:08:44.393Z,78.49
2023-04-28T06:11:12.299Z,78.73
2023-04-28T06:13:41.463Z,79.37
2023-04-28T06:16:09.648Z,79.15
2023-04-28T06:18:37.385Z,79.47
2023-04-28T06:21:05.160Z,79.36
2023-04-28T06:23:32.857Z,79.47
2023-04-28T06:26:00.674Z,79.41
2023-04-28T06:28:28.459Z,79.57
2023-04-28T06:30:57.677Z,79.22
2023-04-28T06:33:25.491Z,79.86
2023-04-28T06:35:53.429Z,80.58
2023-04-28T06:38:21.263Z,80.82
2023-04-28T06:40:49.015Z,80.96
2023-04-28T06:43:16.839Z,81.30
2023-04-28T06:45:44.587Z,81.96
2023-04-28T06:48:13.776Z,82.20
2023-04-28T06:50:43.617Z,82.22
2023-04-28T06:53:11.820Z,82.08
2023-04-28T06:55:39.757Z,81.67
2023-04-28T06:58:07.478Z,82.04
2023-04-28T07:00:35.598Z,81.58
2023-04-28T07:03:03.504Z,82.12
2023-04-28T07:05:33.723Z,82.02
2023-04-28T07:08:01.490Z,82.01
2023-04-28T07:10:29.255Z,82.03
2023-04-28T07:12:57.108Z,82.38
2023-04-28T07:15:25.039Z,81.56
2023-04-28T07:17:52.823Z,82.29
2023-04-28T07:20:20.841Z,81.89
2023-04-28T07:22:50.009Z,82.19
2023-04-28T07:25:17.899Z,81.92
2023-04-28T07:27:47.049Z,82.28
2023-04-28T07:30:26.781Z,82.70
2023-04-28T07:32:56.200Z,83.29
2023-04-28T07:35:24.150Z,83.25
2023-04-28T07:37:53.982Z,83.00
2023-04-28T07:40:22.297Z,83.36
2023-04-28T07:42:50.244Z,83.10
2023-04-28T07:45:18.145Z,83.23
2023-04-28T07:47:45.988Z,83.41
2023-04-28T07:50:13.891Z,83.07
2023-04-28T07:52:41.755Z,83.58
2023-04-28T07:55:11.168Z,84.10
2023-04-28T07:57:42.964Z,84.40
2023-04-28T08:00:12.171Z,84.19
2023-04-28T08:02:40.248Z,84.60
2023-04-28T08:05:09.829Z,84.57
2023-04-28T08:07:38.421Z,84.18
2023-04-28T08:10:07.058Z,84.40
2023-04-28T08:12:36.281Z,84.15
2023-04-28T08:15:05.086Z,84.24
2023-04-28T08:17:32.853Z,84.48
2023-04-28T08:20:00.647Z,84.37
2023-04-28T08:22:28.390Z,84.69
2023-04-28T08:24:56.252Z,84.66
2023-04-28T08:27:25.688Z,84.31
2023-04-28T08:29:54.816Z,84.02
2023-04-28T08:32:22.682Z,84.09
2023-04-28T08:34:50.501Z,83.71
2023-04-28T08:37:18.515Z,83.68
2023-04-28T08:39:46.467Z,83.84
2023-04-28T08:42:14.784Z,83.43
2023-04-28T08:44:42.515Z,83.67
2023-04-28T08:47:13.959Z,83.63
2023-04-28T08:49:42.438Z,83.01
2023-04-28T08:52:14.249Z,83.01
2023-04-28T08:54:42.165Z,82.46
2023-04-28T08:57:10.737Z,81.50
2023-04-28T08:59:42.087Z,81.41
2023-04-28T09:02:11.752Z,81.32
2023-04-28T09:04:39.880Z,80.96
2023-04-28T09:07:12.325Z,80.67
2023-04-28T09:09:40.928Z,80.60
2023-04-28T09:12:09.192Z,80.63
2023-04-28T09:14:37.956Z,80.81
2023-04-28T09:17:13.324Z,81.65
2023-04-28T09:19:43.058Z,81.09
2023-04-28T09:22:25.322Z,81.01
2023-04-28T09:24:55.401Z,80.99
2023-04-28T09:27:28.071Z,80.95
2023-04-28T09:29:55.891Z,80.45
2023-04-28T09:32:27.794Z,80.63
2023-04-28T09:34:57.593Z,80.57
2023-04-28T09:37:30.800Z,80.42
2023-04-28T09:39:59.607Z,80.12
2023-04-28T09:42:35.287Z,80.48
2023-04-28T09:45:04.051Z,80.08
2023-04-28T09:47:35.031Z,80.49
2023-04-28T09:50:03.946Z,81.05
2023-04-28T09:52:31.765Z,80.96
2023-04-28T09:54:59.679Z,80.89
2023-04-28T09:57:28.659Z,80.65
2023-04-28T09:59:56.728Z,80.52
2023-04-28T10:02:42.591Z,80.68
2023-04-28T10:05:13.899Z,80.70
2023-04-28T10:07:42.138Z,80.59
2023-04-28T10:10:10.468Z,80.57
2023-04-28T10:12:39.077Z,80.13
2023-04-28T10:15:08.900Z,79.71
2023-04-28T10:17:37.257Z,79.73
2023-04-28T10:20:06.614Z,79.22
2023-04-28T10:22:53.495Z,79.20
2023-04-28T10:25:28.167Z,78.98
2023-04-28T10:27:55.885Z,78.93
2023-04-28T10:30:28.204Z,79.01
2023-04-28T10:33:27.464Z,78.72
2023-04-28T10:35:55.672Z,78.25
2023-04-28T10:38:24.943Z,77.79
2023-04-28T10:40:53.871Z,77.62
2023-04-28T10:43:37.667Z,78.18
2023-04-28T10:46:07.331Z,78.64
2023-04-28T10:48:56.472Z,79.20
2023-04-28T10:51:34.248Z,79.60
2023-04-28T10:54:16.579Z,79.96
2023-04-28T10:57:20.869Z,80.47
2023-04-28T10:59:52.346Z,80.11
2023-04-28T11:02:47.150Z,80.18
2023-04-28T11:05:16.410Z,80.07
2023-04-28T11:08:29.049Z,79.32
2023-04-28T11:11:31.292Z,77.98
2023-04-28T11:14:32.669Z,77.68
2023-04-28T11:17:02.883Z,77.63
2023-04-28T11:19:33.152Z,77.84
2023-04-28T11:22:02.135Z,77.28
2023-04-28T11:24:31.063Z,77.39
2023-04-28T11:27:00.614Z,76.89
2023-04-28T11:29:36.253Z,76.45
2023-04-28T11:32:04.391Z,75.61
2023-04-28T11:34:32.718Z,76.17
2023-04-28T11:37:00.866Z,75.13
2023-04-28T11:39:29.957Z,75.66
2023-04-28T11:42:00.550Z,75.38
2023-04-28T11:44:30.098Z,75.37
2023-04-28T11:47:01.587Z,75.99
2023-04-28T11:49:30.506Z,77.05
2023-04-28T11:52:00.444Z,76.66
2023-04-28T11:54:29.367Z,75.55
2023-04-28T11:57:01.169Z,74.77
2023-04-28T11:59:30.873Z,75.94
2023-04-28T12:02:00.864Z,74.10
2023-04-28T12:04:33.113Z,73.56
2023-04-28T12:07:07.885Z,73.36
2023-04-28T12:09:36.343Z,73.49
2023-04-28T12:12:06.998Z,73.05
2023-04-28T12:14:54.862Z,73.75
2023-04-28T12:17:26.768Z,72.76
2023-04-28T12:19:54.681Z,71.49
2023-04-28T12:22:22.738Z,69.88
2023-04-28T12:25:04.642Z,71.00
2023-04-28T12:27:33.743Z,71.47
2023-04-28T12:30:01.504Z,72.20
2023-04-28T12:32:39.706Z,71.68
2023-04-28T12:35:08.633Z,71.57
2023-04-28T12:37:38.360Z,71.02
2023-04-28T12:40:07.240Z,69.03
2023-04-28T12:42:36.603Z,67.78
2023-04-28T12:45:04.852Z,67.39
2023-04-28T12:47:33.323Z,68.61
2023-04-28T12:50:01.421Z,69.60
2023-04-28T12:52:29.577Z,70.24
2023-04-28T12:54:57.478Z,71.56
2023-04-28T12:57:25.281Z,72.39
2023-04-28T12:59:56.118Z,72.10
2023-04-28T13:02:24.063Z,72.96
2023-04-28T13:04:53.051Z,73.30
2023-04-28T13:07:22.022Z,74.08
2023-04-28T13:09:49.782Z,74.55
2023-04-28T13:12:17.526Z,75.17
2023-04-28T13:14:45.286Z,76.24
2023-04-28T13:17:14.434Z,76.81
2023-04-28T13:19:42.323Z,78.08
2023-04-28T13:22:10.377Z,78.06
2023-04-28T13:24:38.096Z,78.10
2023-04-28T13:27:09.759Z,78.36
2023-04-28T13:29:38.038Z,79.68
2023-04-28T13:32:06.353Z,80.14
2023-04-28T13:34:35.822Z,80.19
2023-04-28T13:37:03.580Z,80.82
2023-04-28T13:39:31.320Z,81.70
2023-04-28T13:41:59.114Z,82.22
2023-04-28T13:44:26.953Z,82.22
2023-04-28T13:46:54.725Z,81.69
2023-04-28T13:49:23.782Z,81.31
2023-04-28T13:51:52.890Z,81.81
2023-04-28T13:54:21.308Z,80.99
2023-04-28T13:56:49.451Z,82.03
2023-04-28T13:59:17.299Z,82.06
2023-04-28T14:01:45.469Z,81.88
2023-04-28T14:04:13.373Z,81.00
2023-04-28T14:06:42.327Z,81.58
2023-04-28T14:09:11.668Z,80.98
2023-04-28T14:11:39.479Z,81.31
2023-04-28T14:14:07.170Z,81.78
2023-04-28T14:16:34.963Z,81.59
2023-04-28T14:19:02.806Z,80.41
2023-04-28T14:21:31.202Z,79.90
2023-04-28T14:23:59.036Z,80.09
2023-04-28T14:26:28.485Z,79.68
2023-04-28T14:28:56.348Z,79.22
2023-04-28T14:31:24.924Z,79.08
2023-04-28T14:33:52.686Z,78.43
2023-04-28T14:36:20.679Z,78.53
2023-04-28T14:38:48.557Z,78.06
2023-04-28T14:41:16.347Z,78.20
2023-04-28T14:43:46.207Z,78.24
2023-04-28T14:46:14.018Z,77.92
2023-04-28T14:48:41.752Z,77.41
2023-04-28T14:51:09.691Z,77.64
2023-04-28T14:53:37.462Z,77.87
2023-04-28T14:56:17.826Z,76.99
2023-04-28T14:58:48.555Z,77.22
2023-04-28T15:01:16.697Z,75.99
2023-04-28T15:03:44.640Z,75.93
2023-04-28T15:06:13.375Z,76.21
2023-04-28T15:08:41.316Z,76.65
2023-04-28T15:11:09.267Z,77.03
2023-04-28T15:13:37.634Z,77.12
2023-04-28T15:16:07.567Z,77.26
2023-04-28T15:18:36.477Z,77.36
2023-04-28T15:21:04.351Z,77.82
2023-04-28T15:23:32.096Z,78.24
2023-04-28T15:25:59.867Z,78.71
2023-04-28T15:28:28.172Z,78.37
2023-04-28T15:30:56.197Z,78.37
2023-04-28T15:33:25.388Z,78.82
2023-04-28T15:35:53.161Z,79.13
2023-04-28T15:38:21.120Z,78.12
2023-04-28T15:40:49.790Z,77.99
2023-04-28T15:43:17.623Z,78.30
2023-04-28T15:45:46.994Z,78.26
2023-04-28T15:48:15.442Z,78.37
2023-04-28T15:50:44.754Z,78.32
2023-04-28T15:53:12.530Z,78.35
2023-04-28T15:55:40.266Z,78.28
2023-04-28T15:58:09.427Z,78.56
2023-04-28T16:00:37.291Z,79.48
2023-04-28T16:03:06.122Z,79.59
2023-04-28T16:05:33.980Z,79.57
2023-04-28T16:08:03.093Z,79.89
2023-04-28T16:10:31.169Z,80.76
2023-04-28T16:12:59.013Z,80.43
2023-04-28T16:15:26.826Z,80.65
2023-04-28T16:17:56.931Z,80.81
2023-04-28T16:20:24.924Z,81.31
2023-04-28T16:22:53.411Z,82.01
2023-04-28T16:25:23.803Z,82.43
2023-04-28T16:27:51.911Z,82.17
2023-04-28T16:30:19.978Z,81.98
2023-04-28T16:32:47.868Z,81.10
2023-04-28T16:35:16.037Z,80.84
2023-04-28T16:37:44.161Z,80.85
2023-04-28T16:40:13.238Z,80.30
2023-04-28T16:42:43.569Z,80.40
2023-04-28T16:45:12.076Z,80.72
2023-04-28T16:47:42.371Z,80.37
2023-04-28T16:50:11.442Z,80.24
2023-04-28T16:52:39.214Z,79.56
2023-04-28T16:55:08.175Z,79.62
2023-04-28T16:57:36.182Z,79.10
2023-04-28T17:00:06.206Z,78.67
2023-04-28T17:02:34.595Z,77.48
2023-04-28T17:05:02.506Z,77.26
2023-04-28T17:07:30.276Z,76.34
2023-04-28T17:09:58.157Z,75.63
2023-04-28T17:12:25.930Z,74.45
2023-04-28T17:14:54.626Z,74.21
2023-04-28T17:17:23.863Z,73.83
2023-04-28T17:19:51.840Z,74.48
2023-04-28T17:22:20.490Z,74.61
2023-04-28T17:24:48.276Z,73.50
2023-04-28T17:27:16.217Z,73.59
2023-04-28T17:29:44.313Z,73.32
2023-04-28T17:32:12.177Z,74.10
2023-04-28T17:34:41.649Z,73.62
2023-04-28T17:37:09.447Z,72.99
2023-04-28T17:39:37.208Z,72.79
2023-04-28T17:42:05.268Z,73.68
2023-04-28T17:44:33.052Z,74.09
2023-04-28T17:47:01.302Z,74.65
2023-04-28T17:49:29.253Z,74.92
2023-04-28T17:51:58.391Z,74.98
2023-04-28T17:54:26.168Z,75.26
2023-04-28T17:56:54.784Z,75.76
2023-04-28T17:59:22.619Z,75.70
2023-04-28T18:01:50.470Z,75.53
2023-04-28T18:04:18.358Z,75.97
2023-04-28T18:06:46.206Z,76.00
2023-04-28T18:09:15.476Z,76.13
2023-04-28T18:11:43.276Z,76.71
2023-04-28T18:14:11.048Z,76.66
2023-04-28T18:16:39.066Z,76.40
2023-04-28T18:19:06.982Z,76.88
2023-04-28T18:21:35.146Z,76.91
2023-04-28T18:24:02.954Z,77.01
2023-04-28T18:26:32.132Z,77.45
2023-04-28T18:28:59.918Z,77.00
2023-04-28T18:31:27.869Z,77.19
2023-04-28T18:33:55.691Z,77.05
2023-04-28T18:36:23.504Z,76.89
2023-04-28T18:38:51.282Z,77.27
2023-04-28T18:41:19.756Z,76.82
2023-04-28T18:43:48.964Z,75.89
2023-04-28T18:46:16.866Z,76.26
2023-04-28T18:48:44.861Z,75.88
2023-04-28T18:51:12.703Z,75.89
2023-04-28T18:53:40.511Z,76.11
2023-04-28T18:56:08.266Z,75.89
2023-04-28T18:58:37.132Z,75.99
2023-04-28T19:01:06.364Z,75.78
2023-04-28T19:03:34.289Z,76.35
2023-04-28T19:06:02.114Z,76.29
2023-04-28T19:08:29.978Z,76.42
2023-04-28T19:10:58.792Z,76.64
2023-04-28T19:13:26.670Z,76.26
2023-04-28T19:15:56.246Z,76.69
2023-04-28T19:18:25.496Z,77.01
2023-04-28T19:21:00.733Z,77.39
2023-04-28T19:23:28.878Z,76.88
2023-04-28T19:25:57.608Z,77.29
2023-04-28T19:28:26.198Z,77.90
2023-04-28T19:30:54.492Z,77.95
2023-04-28T19:33:26.206Z,77.23
2023-04-28T19:35:57.233Z,77.71
2023-04-28T19:38:25.153Z,77.81
2023-04-28T19:40:59.818Z,77.16
2023-04-28T19:43:27.742Z,77.35
2023-04-28T19:45:55.532Z,78.02
2023-04-28T19:48:23.395Z,78.83
2023-04-28T19:50:51.303Z,78.32
2023-04-28T19:53:20.520Z,78.62
2023-04-28T19:55:48.357Z,78.87
2023-04-28T19:58:16.339Z,79.50
2023-04-28T20:00:45.354Z,80.02
2023-04-28T20:03:14.819Z,79.46
2023-04-28T20:05:42.945Z,80.05
2023-04-28T20:08:10.926Z,80.16
2023-04-28T20:10:40.114Z,81.10
2023-04-28T20:13:08.066Z,80.76
2023-04-28T20:15:36.248Z,80.85
2023-04-28T20:18:04.185Z,80.93
2023-04-28T20:20:31.993Z,81.62
2023-04-28T20:22:59.730Z,81.95
2023-04-28T20:25:27.903Z,81.46
2023-04-28T20:27:57.114Z,81.87
2023-04-28T20:30:25.249Z,82.04
2023-04-28T20:32:53.026Z,82.67
2023-04-28T20:35:22.886Z,82.34
2023-04-28T20:37:50.614Z,82.57
2023-04-28T20:40:18.637Z,82.13
2023-04-28T20:42:46.346Z,82.54
2023-04-28T20:45:15.573Z,82.02
2023-04-28T20:47:43.629Z,82.20
2023-04-28T20:50:12.427Z,82.20
2023-04-28T20:52:40.215Z,81.74
2023-04-28T20:55:09.558Z,81.92
2023-04-28T20:57:37.314Z,81.92
2023-04-28T21:00:08.008Z,82.19
2023-04-28T21:02:37.965Z,81.19
2023-04-28T21:05:06.307Z,80.98
2023-04-28T21:07:34.092Z,81.39
2023-04-28T21:10:01.883Z,80.61
2023-04-28T21:12:29.650Z,80.50
2023-04-28T21:14:59.834Z,79.70
2023-04-28T21:17:27.643Z,79.41
2023-04-28T21:19:57.467Z,78.93
2023-04-28T21:22:26.153Z,78.94
2023-04-28T21:24:54.886Z,78.67
2023-04-28T21:27:22.716Z,78.39
2023-04-28T21:29:51.259Z,78.05
2023-04-28T21:32:19.907Z,78.09
2023-04-28T21:34:49.101Z,77.69
2023-04-28T21:37:18.482Z,77.92
2023-04-28T21:39:47.063Z,77.65
2023-04-28T21:42:15.142Z,77.45
2023-04-28T21:44:42.910Z,77.42
2023-04-28T21:47:10.786Z,77.16
2023-04-28T21:49:38.865Z,77.14
2023-04-28T21:52:06.683Z,77.11
2023-04-28T21:54:35.946Z,77.13
2023-04-28T21:57:04.065Z,76.57
2023-04-28T21:59:31.919Z,77.15
2023-04-28T22:02:00.076Z,77.25
2023-04-28T22:04:28.835Z,77.65
2023-04-28T22:06:57.424Z,77.74
2023-04-28T22:09:25.874Z,78.01
2023-04-28T22:11:55.090Z,78.05
2023-04-28T22:14:39.455Z,78.00
2023-04-28T22:17:09.519Z,78.31
2023-04-28T22:19:37.397Z,78.47
2023-04-28T22:22:05.498Z,78.61
2023-04-28T22:24:33.616Z,78.66
2023-04-28T22:27:03.380Z,78.84
2023-04-28T22:29:31.321Z,78.88
2023-04-28T22:31:59.922Z,79.03
2023-04-28T22:34:27.934Z,79.01
2023-04-28T22:36:55.695Z,79.43
2023-04-28T22:39:25.125Z,79.27
2023-04-28T22:41:53.419Z,79.37
2023-04-28T22:44:22.791Z,79.67
2023-04-28T22:46:50.593Z,79.36
2023-04-28T22:49:24.393Z,79.45
2023-04-28T22:51:52.352Z,79.76
2023-04-28T22:54:20.122Z,79.85
2023-04-28T22:56:48.134Z,79.66
2023-04-28T22:59:16.046Z,79.98
2023-04-28T23:01:45.313Z,79.87
2023-04-28T23:04:13.652Z,79.97
2023-04-28T23:06:41.718Z,79.89
2023-04-28T23:09:10.373Z,80.25
2023-04-28T23:11:38.544Z,80.09
2023-04-28T23:14:06.424Z,79.72
2023-04-28T23:16:34.320Z,79.84
2023-04-28T23:19:03.747Z,80.04
2023-04-28T23:21:32.046Z,79.97
2023-04-28T23:23:59.772Z,80.28
2023-04-28T23:26:27.874Z,80.08
2023-04-28T23:28:55.891Z,80.38
2023-04-28T23:31:23.861Z,80.70
2023-04-28T23:33:52.001Z,80.39
2023-04-28T23:36:21.374Z,80.43
2023-04-28T23:38:49.329Z,80.36
2023-04-28T23:41:17.057Z,80.80
2023-04-28T23:43:44.808Z,81.34
2023-04-28T23:46:12.615Z,81.50
2023-04-28T23:48:40.402Z,81.83
2023-04-28T23:51:08.248Z,82.20
2023-04-28T23:53:37.323Z,82.78
2023-04-28T23:56:05.544Z,82.51
2023-04-28T23:58:33.275Z,82.50
